createdAt,value
2023-05-22T00:00:44.757Z,88.04
2023-05-22T00:01:44.742Z,87.95
2023-05-22T00:02:44.858Z,87.95
2023-05-22T00:03:44.709Z,87.95
2023-05-22T00:04:44.784Z,88.04
2023-05-22T00:05:44.690Z,88.04
2023-05-22T00:06:44.673Z,88.04
2023-05-22T00:07:44.670Z,87.99
2023-05-22T00:08:44.649Z,87.95
2023-05-22T00:09:44.645Z,87.95
2023-05-22T00:10:44.632Z,87.99
2023-05-22T00:11:44.620Z,87.88
2023-05-22T00:12:44.627Z,87.88
2023-05-22T00:13:44.579Z,87.79
2023-05-22T00:14:44.595Z,87.88
2023-05-22T00:15:44.555Z,87.99
2023-05-22T00:16:44.589Z,88.09
2023-05-22T00:17:44.650Z,88.19
2023-05-22T00:18:44.557Z,88.09
2023-05-22T00:19:44.512Z,87.99
2023-05-22T00:20:44.494Z,87.88
2023-05-22T00:21:44.515Z,87.68
2023-05-22T00:22:44.483Z,87.48
2023-05-22T00:23:44.453Z,87.48
2023-05-22T00:24:44.441Z,87.68
2023-05-22T00:25:44.419Z,87.88
2023-05-22T00:26:44.435Z,87.99
2023-05-22T00:27:44.389Z,87.99
2023-05-22T00:28:44.383Z,87.88
2023-05-22T00:29:44.369Z,87.88
2023-05-22T00:30:44.368Z,87.82
2023-05-22T00:31:44.372Z,88.02
2023-05-22T00:32:44.363Z,88.23
2023-05-22T00:33:44.328Z,88.33
2023-05-22T00:34:44.398Z,88.33
2023-05-22T00:35:44.297Z,88.33
2023-05-22T00:36:44.297Z,88.43
2023-05-22T00:37:44.263Z,88.23
2023-05-22T00:38:44.267Z,88.23
2023-05-22T00:39:44.245Z,88.43
2023-05-22T00:40:44.236Z,88.43
2023-05-22T00:41:44.254Z,88.33
2023-05-22T00:42:44.209Z,88.23
2023-05-22T00:43:44.204Z,88.33
2023-05-22T00:44:44.175Z,88.23
2023-05-22T00:45:44.155Z,88.13
2023-05-22T00:46:44.228Z,88.13
2023-05-22T00:47:44.197Z,88.13
2023-05-22T00:48:44.132Z,88.13
2023-05-22T00:49:44.105Z,88.13
2023-05-22T00:50:44.111Z,88.02
2023-05-22T00:51:44.097Z,87.73
2023-05-22T00:52:44.077Z,87.82
2023-05-22T00:53:44.054Z,87.97
2023-05-22T00:54:44.052Z,87.97
2023-05-22T00:55:44.056Z,88.17
2023-05-22T00:56:44.073Z,88.27
2023-05-22T00:57:44.009Z,88.37
2023-05-22T00:58:43.996Z,88.37
2023-05-22T00:59:43.976Z,88.27
2023-05-22T01:00:43.998Z,88.17
2023-05-22T01:01:44.085Z,88.17
2023-05-22T01:02:44.074Z,88.27
2023-05-22T01:03:43.998Z,88.27
2023-05-22T01:04:43.909Z,88.37
2023-05-22T01:05:43.907Z,88.48
2023-05-22T01:06:43.884Z,88.48
2023-05-22T01:07:43.885Z,88.37
2023-05-22T01:08:43.875Z,88.27
2023-05-22T01:09:43.853Z,88.37
2023-05-22T01:10:43.858Z,88.37
2023-05-22T01:11:43.817Z,88.37
2023-05-22T01:12:43.809Z,88.48
2023-05-22T01:13:43.788Z,88.57
2023-05-22T01:14:43.775Z,88.72
2023-05-22T01:15:43.795Z,88.82
2023-05-22T01:16:43.868Z,88.82
2023-05-22T01:17:43.813Z,88.82
2023-05-22T01:18:43.778Z,88.82
2023-05-22T01:19:43.746Z,88.92
2023-05-22T01:20:43.721Z,88.72
2023-05-22T01:21:43.712Z,88.62
2023-05-22T01:22:43.683Z,88.62
2023-05-22T01:23:43.673Z,88.72
2023-05-22T01:24:43.667Z,88.82
2023-05-22T01:25:43.628Z,88.72
2023-05-22T01:26:43.640Z,88.57
2023-05-22T01:27:43.610Z,88.72
2023-05-22T01:28:43.604Z,88.82
2023-05-22T01:29:43.600Z,88.62
2023-05-22T01:30:43.566Z,88.51
2023-05-22T01:31:43.550Z,88.62
2023-05-22T01:32:43.607Z,88.82
2023-05-22T01:33:43.596Z,88.92
2023-05-22T01:34:43.542Z,89.02
2023-05-22T01:35:43.493Z,88.82
2023-05-22T01:36:43.487Z,88.82
2023-05-22T01:37:43.472Z,88.92
2023-05-22T01:38:43.474Z,88.92
2023-05-22T01:39:43.462Z,89.02
2023-05-22T01:40:43.427Z,89.12
2023-05-22T01:41:43.412Z,89.32
2023-05-22T01:42:43.399Z,89.32
2023-05-22T01:43:43.432Z,89.23
2023-05-22T01:44:43.393Z,89.23
2023-05-22T01:45:43.404Z,89.32
2023-05-22T01:46:43.363Z,89.23
2023-05-22T01:47:43.374Z,89.23
2023-05-22T01:48:43.356Z,89.23
2023-05-22T01:49:43.352Z,89.23
2023-05-22T01:50:43.304Z,89.12
2023-05-22T01:51:43.305Z,89.02
2023-05-22T01:52:43.276Z,88.92
2023-05-22T01:53:43.303Z,88.72
2023-05-22T01:54:43.249Z,88.62
2023-05-22T01:55:43.247Z,88.51
2023-05-22T01:56:43.215Z,88.62
2023-05-22T01:57:43.227Z,88.76
2023-05-22T01:58:43.230Z,88.66
2023-05-22T01:59:43.184Z,88.66
2023-05-22T02:00:43.166Z,88.66
2023-05-22T02:01:43.256Z,88.66
2023-05-22T02:02:43.271Z,88.66
2023-05-22T02:03:43.201Z,88.46
2023-05-22T02:04:43.095Z,88.15
2023-05-22T02:05:43.128Z,88.05
2023-05-22T02:06:43.083Z,88.15
2023-05-22T02:07:43.100Z,88.35
2023-05-22T02:08:43.034Z,88.46
2023-05-22T02:09:43.042Z,88.35
2023-05-22T02:10:43.037Z,88.25
2023-05-22T02:11:43.017Z,88.46
2023-05-22T02:12:43.008Z,88.56
2023-05-22T02:13:42.995Z,88.46
2023-05-22T02:14:43.042Z,88.35
2023-05-22T02:15:43.053Z,88.15
2023-05-22T02:16:42.948Z,87.95
2023-05-22T02:17:43.065Z,87.99
2023-05-22T02:18:42.952Z,87.89
2023-05-22T02:19:42.922Z,87.99
2023-05-22T02:20:42.892Z,88.09
2023-05-22T02:21:42.882Z,88.20
2023-05-22T02:22:42.878Z,88.20
2023-05-22T02:23:42.866Z,88.20
2023-05-22T02:24:42.860Z,88.20
2023-05-22T02:25:42.846Z,88.20
2023-05-22T02:26:42.835Z,88.09
2023-05-22T02:27:42.846Z,87.99
2023-05-22T02:28:42.781Z,88.09
2023-05-22T02:29:42.771Z,88.09
2023-05-22T02:30:42.761Z,88.09
2023-05-22T02:31:42.812Z,87.99
2023-05-22T02:32:42.811Z,87.89
2023-05-22T02:33:42.725Z,88.09
2023-05-22T02:34:42.706Z,88.29
2023-05-22T02:35:42.709Z,88.40
2023-05-22T02:36:42.703Z,88.20
2023-05-22T02:37:42.677Z,88.44
2023-05-22T02:38:42.657Z,88.75
2023-05-22T02:39:42.649Z,89.04
2023-05-22T02:40:42.705Z,89.04
2023-05-22T02:41:42.637Z,89.15
2023-05-22T02:42:42.620Z,89.25
2023-05-22T02:43:42.612Z,89.04
2023-05-22T02:44:42.583Z,88.95
2023-05-22T02:45:42.558Z,89.15
2023-05-22T02:46:42.601Z,89.29
2023-05-22T02:47:42.560Z,89.29
2023-05-22T02:48:42.518Z,89.39
2023-05-22T02:49:42.524Z,89.50
2023-05-22T02:50:42.490Z,89.59
2023-05-22T02:51:42.498Z,89.50
2023-05-22T02:52:42.474Z,89.35
2023-05-22T02:53:42.470Z,89.25
2023-05-22T02:54:42.436Z,89.25
2023-05-22T02:55:42.445Z,89.15
2023-05-22T02:56:42.429Z,89.04
2023-05-22T02:57:42.397Z,88.95
2023-05-22T02:58:42.382Z,88.95
2023-05-22T02:59:42.397Z,88.84
2023-05-22T03:00:42.400Z,88.95
2023-05-22T03:01:42.407Z,88.95
2023-05-22T03:02:42.351Z,88.84
2023-05-22T03:03:42.420Z,88.75
2023-05-22T03:04:42.310Z,88.64
2023-05-22T03:05:42.306Z,88.68
2023-05-22T03:06:42.269Z,88.78
2023-05-22T03:07:42.360Z,88.78
2023-05-22T03:08:42.248Z,88.78
2023-05-22T03:09:42.259Z,88.78
2023-05-22T03:10:42.296Z,88.78
2023-05-22T03:11:42.230Z,88.78
2023-05-22T03:12:42.251Z,88.68
2023-05-22T03:13:42.186Z,88.58
2023-05-22T03:14:42.237Z,88.48
2023-05-22T03:15:42.157Z,88.82
2023-05-22T03:16:42.213Z,89.03
2023-05-22T03:17:42.167Z,89.03
2023-05-22T03:18:42.117Z,89.23
2023-05-22T03:19:42.125Z,89.23
2023-05-22T03:20:42.216Z,89.23
2023-05-22T03:21:42.090Z,89.13
2023-05-22T03:22:42.067Z,89.03
2023-05-22T03:23:42.049Z,88.93
2023-05-22T03:24:42.048Z,89.13
2023-05-22T03:25:42.037Z,89.23
2023-05-22T03:26:42.063Z,89.23
2023-05-22T03:27:42.005Z,89.33
2023-05-22T03:28:42.007Z,89.43
2023-05-22T03:29:41.995Z,89.43
2023-05-22T03:30:42.167Z,89.43
2023-05-22T03:31:41.960Z,89.64
2023-05-22T03:32:41.956Z,89.64
2023-05-22T03:33:41.966Z,89.54
2023-05-22T03:34:41.914Z,89.54
2023-05-22T03:35:41.895Z,89.54
2023-05-22T03:36:41.891Z,89.54
2023-05-22T03:37:41.883Z,89.43
2023-05-22T03:38:41.872Z,89.19
2023-05-22T03:39:41.864Z,88.78
2023-05-22T03:40:42.051Z,88.68
2023-05-22T03:41:41.837Z,88.78
2023-05-22T03:42:41.812Z,88.82
2023-05-22T03:43:44.781Z,88.93
2023-05-22T03:44:41.771Z,88.78
2023-05-22T03:45:41.789Z,88.82
2023-05-22T03:46:41.764Z,88.82
2023-05-22T03:47:41.791Z,89.03
2023-05-22T03:48:41.744Z,89.13
2023-05-22T03:49:41.726Z,89.23
2023-05-22T03:50:41.933Z,89.33
2023-05-22T03:51:41.685Z,89.43
2023-05-22T03:52:41.692Z,89.43
2023-05-22T03:53:41.661Z,89.33
2023-05-22T03:54:41.648Z,89.33
2023-05-22T03:55:41.633Z,89.23
2023-05-22T03:56:41.610Z,89.33
2023-05-22T03:57:41.618Z,89.43
2023-05-22T03:58:41.595Z,89.64
2023-05-22T03:59:41.575Z,89.74
2023-05-22T04:00:41.557Z,89.74
2023-05-22T04:01:41.572Z,89.74
2023-05-22T04:02:41.627Z,89.64
2023-05-22T04:03:41.576Z,89.43
2023-05-22T04:04:41.574Z,89.54
2023-05-22T04:05:41.528Z,89.64
2023-05-22T04:06:41.501Z,89.74
2023-05-22T04:07:41.471Z,89.84
2023-05-22T04:08:41.450Z,89.84
2023-05-22T04:09:41.550Z,89.84
2023-05-22T04:10:41.614Z,89.64
2023-05-22T04:11:41.415Z,89.54
2023-05-22T04:12:41.410Z,89.54
2023-05-22T04:13:41.390Z,89.43
2023-05-22T04:14:41.365Z,89.33
2023-05-22T04:15:41.386Z,89.23
2023-05-22T04:16:41.364Z,89.13
2023-05-22T04:17:41.388Z,89.03
2023-05-22T04:18:41.315Z,88.93
2023-05-22T04:19:41.301Z,89.03
2023-05-22T04:20:41.452Z,89.23
2023-05-22T04:21:41.299Z,89.23
2023-05-22T04:22:41.373Z,89.13
2023-05-22T04:23:41.250Z,89.23
2023-05-22T04:24:41.257Z,89.33
2023-05-22T04:25:41.255Z,89.43
2023-05-22T04:26:42.572Z,89.50
2023-05-22T04:27:41.200Z,89.59
2023-05-22T04:28:41.182Z,89.59
2023-05-22T04:29:41.176Z,89.59
2023-05-22T04:30:41.326Z,89.50
2023-05-22T04:31:41.256Z,89.50
2023-05-22T04:32:41.200Z,89.29
2023-05-22T04:33:41.107Z,89.19
2023-05-22T04:34:41.123Z,89.09
2023-05-22T04:35:41.136Z,88.99
2023-05-22T04:36:41.082Z,88.78
2023-05-22T04:37:41.150Z,88.64
2023-05-22T04:38:41.066Z,88.44
2023-05-22T04:39:41.076Z,88.44
2023-05-22T04:40:41.207Z,88.34
2023-05-22T04:41:41.025Z,88.34
2023-05-22T04:42:41.020Z,88.23
2023-05-22T04:43:40.987Z,88.13
2023-05-22T04:44:40.971Z,88.23
2023-05-22T04:45:40.975Z,88.23
2023-05-22T04:46:40.984Z,88.13
2023-05-22T04:47:40.996Z,88.13
2023-05-22T04:48:40.915Z,88.20
2023-05-22T04:49:40.929Z,88.29
2023-05-22T04:50:41.241Z,88.29
2023-05-22T04:51:40.886Z,88.09
2023-05-22T04:52:40.868Z,88.20
2023-05-22T04:53:40.860Z,88.29
2023-05-22T04:54:40.850Z,88.60
2023-05-22T04:55:40.858Z,88.70
2023-05-22T04:56:40.811Z,88.70
2023-05-22T04:57:40.819Z,88.60
2023-05-22T04:58:40.773Z,88.49
2023-05-22T04:59:40.781Z,88.46
2023-05-22T05:00:41.009Z,88.46
2023-05-22T05:01:40.786Z,88.25
2023-05-22T05:02:40.777Z,87.95
2023-05-22T05:03:40.778Z,87.71
2023-05-22T05:04:40.717Z,87.60
2023-05-22T05:05:40.714Z,87.60
2023-05-22T05:06:40.679Z,87.60
2023-05-22T05:07:40.689Z,87.60
2023-05-22T05:08:40.665Z,87.51
2023-05-22T05:09:40.661Z,87.51
2023-05-22T05:10:40.889Z,87.30
2023-05-22T05:11:40.617Z,87.20
2023-05-22T05:12:40.595Z,87.20
2023-05-22T05:13:40.613Z,87.30
2023-05-22T05:14:40.586Z,87.40
2023-05-22T05:15:40.579Z,87.40
2023-05-22T05:16:40.632Z,87.51
2023-05-22T05:17:40.553Z,87.51
2023-05-22T05:18:40.549Z,87.36
2023-05-22T05:19:40.551Z,87.26
2023-05-22T05:20:40.654Z,87.16
2023-05-22T05:21:40.467Z,87.05
2023-05-22T05:22:40.496Z,87.05
2023-05-22T05:23:40.488Z,87.05
2023-05-22T05:24:40.462Z,87.16
2023-05-22T05:25:40.428Z,87.16
2023-05-22T05:26:40.400Z,87.26
2023-05-22T05:27:40.410Z,87.36
2023-05-22T05:28:40.390Z,87.46
2023-05-22T05:29:40.392Z,87.36
2023-05-22T05:30:40.735Z,87.36
2023-05-22T05:31:40.365Z,87.62
2023-05-22T05:32:40.422Z,87.73
2023-05-22T05:33:40.336Z,87.73
2023-05-22T05:34:40.315Z,87.82
2023-05-22T05:35:42.698Z,87.73
2023-05-22T05:36:40.286Z,87.52
2023-05-22T05:37:40.291Z,87.28
2023-05-22T05:38:40.234Z,86.98
2023-05-22T05:39:40.251Z,86.77
2023-05-22T05:40:40.475Z,86.33
2023-05-22T05:41:40.241Z,86.33
2023-05-22T05:42:40.184Z,86.22
2023-05-22T05:43:40.184Z,86.22
2023-05-22T05:44:40.178Z,86.22
2023-05-22T05:45:40.171Z,86.22
2023-05-22T05:46:40.195Z,86.22
2023-05-22T05:47:40.153Z,86.13
2023-05-22T05:48:40.097Z,86.02
2023-05-22T05:49:40.106Z,85.78
2023-05-22T05:50:40.361Z,85.58
2023-05-22T05:51:40.096Z,85.58
2023-05-22T05:52:40.072Z,85.48
2023-05-22T05:53:40.043Z,85.28
2023-05-22T05:54:40.032Z,85.28
2023-05-22T05:55:40.041Z,85.28
2023-05-22T05:56:40.015Z,85.28
2023-05-22T05:57:40.006Z,85.28
2023-05-22T05:58:39.983Z,85.48
2023-05-22T05:59:39.981Z,85.48
2023-05-22T06:00:40.338Z,85.48
2023-05-22T06:01:39.956Z,85.48
2023-05-22T06:02:40.040Z,85.38
2023-05-22T06:03:40.030Z,85.38
2023-05-22T06:04:39.908Z,85.48
2023-05-22T06:05:39.937Z,85.58
2023-05-22T06:06:39.883Z,85.68
2023-05-22T06:07:39.970Z,85.88
2023-05-22T06:08:39.864Z,85.99
2023-05-22T06:09:39.860Z,86.19
2023-05-22T06:10:40.144Z,86.29
2023-05-22T06:11:39.821Z,86.29
2023-05-22T06:12:39.813Z,86.15
2023-05-22T06:13:39.787Z,86.35
2023-05-22T06:14:39.794Z,86.45
2023-05-22T06:15:39.766Z,86.35
2023-05-22T06:16:39.820Z,86.25
2023-05-22T06:17:39.771Z,86.15
2023-05-22T06:18:39.740Z,85.94
2023-05-22T06:19:39.733Z,86.04
2023-05-22T06:20:39.983Z,86.25
2023-05-22T06:21:39.694Z,86.25
2023-05-22T06:22:39.659Z,86.35
2023-05-22T06:23:39.649Z,86.15
2023-05-22T06:24:39.642Z,85.74
2023-05-22T06:25:39.706Z,85.50
2023-05-22T06:26:39.628Z,85.30
2023-05-22T06:27:39.609Z,85.10
2023-05-22T06:28:39.616Z,84.99
2023-05-22T06:29:39.591Z,84.85
2023-05-22T06:30:40.510Z,84.75
2023-05-22T06:31:39.587Z,84.45
2023-05-22T06:32:39.792Z,84.25
2023-05-22T06:33:39.622Z,84.75
2023-05-22T06:34:39.535Z,84.85
2023-05-22T06:35:39.498Z,84.75
2023-05-22T06:36:39.496Z,84.81
2023-05-22T06:37:39.479Z,84.61
2023-05-22T06:38:39.530Z,84.61
2023-05-22T06:39:39.447Z,84.41
2023-05-22T06:40:39.716Z,84.91
2023-05-22T06:41:39.924Z,84.61
2023-05-22T06:42:39.427Z,84.61
2023-05-22T06:43:39.421Z,85.02
2023-05-22T06:44:39.383Z,85.22
2023-05-22T06:45:39.381Z,85.22
2023-05-22T06:46:39.559Z,85.31
2023-05-22T06:47:39.404Z,85.22
2023-05-22T06:48:39.348Z,85.22
2023-05-22T06:49:39.315Z,85.62
2023-05-22T06:50:39.512Z,85.62
2023-05-22T06:51:39.353Z,85.52
2023-05-22T06:52:39.304Z,85.11
2023-05-22T06:53:39.282Z,84.91
2023-05-22T06:54:39.252Z,84.71
2023-05-22T06:55:39.249Z,84.88
2023-05-22T06:56:39.224Z,85.28
2023-05-22T06:57:39.241Z,85.68
2023-05-22T06:58:39.203Z,85.88
2023-05-22T06:59:39.183Z,85.38
2023-05-22T07:00:39.603Z,84.97
2023-05-22T07:01:39.232Z,84.67
2023-05-22T07:02:39.198Z,84.47
2023-05-22T07:03:39.131Z,84.47
2023-05-22T07:04:39.144Z,85.08
2023-05-22T07:05:39.158Z,85.48
2023-05-22T07:06:39.335Z,85.58
2023-05-22T07:07:39.086Z,84.97
2023-05-22T07:08:39.073Z,84.63
2023-05-22T07:09:39.050Z,84.94
2023-05-22T07:10:39.319Z,85.64
2023-05-22T07:11:39.044Z,85.74
2023-05-22T07:12:39.021Z,85.64
2023-05-22T07:13:39.002Z,85.84
2023-05-22T07:14:39.032Z,85.74
2023-05-22T07:15:38.980Z,85.84
2023-05-22T07:16:39.044Z,86.04
2023-05-22T07:17:39.001Z,86.24
2023-05-22T07:18:38.949Z,86.35
2023-05-22T07:19:38.939Z,86.15
2023-05-22T07:20:39.079Z,86.04
2023-05-22T07:21:38.918Z,86.04
2023-05-22T07:22:38.891Z,85.94
2023-05-22T07:23:38.860Z,85.84
2023-05-22T07:24:38.977Z,85.90
2023-05-22T07:25:38.857Z,86.41
2023-05-22T07:26:38.855Z,86.61
2023-05-22T07:27:38.824Z,86.41
2023-05-22T07:28:38.815Z,86.30
2023-05-22T07:29:38.797Z,86.21
2023-05-22T07:30:39.102Z,86.30
2023-05-22T07:31:38.784Z,86.30
2023-05-22T07:32:38.799Z,86.10
2023-05-22T07:33:38.728Z,86.21
2023-05-22T07:34:38.756Z,86.30
2023-05-22T07:35:38.731Z,86.30
2023-05-22T07:36:38.772Z,86.51
2023-05-22T07:37:38.702Z,86.51
2023-05-22T07:38:38.666Z,86.41
2023-05-22T07:39:38.669Z,86.77
2023-05-22T07:40:38.887Z,86.66
2023-05-22T07:41:38.628Z,86.77
2023-05-22T07:42:38.627Z,86.46
2023-05-22T07:43:38.598Z,86.57
2023-05-22T07:44:38.710Z,85.96
2023-05-22T07:45:38.729Z,85.46
2023-05-22T07:46:38.669Z,85.36
2023-05-22T07:47:38.584Z,85.76
2023-05-22T07:48:38.541Z,85.86
2023-05-22T07:49:38.544Z,85.86
2023-05-22T07:50:38.513Z,85.86
2023-05-22T07:51:38.488Z,85.96
2023-05-22T07:52:38.500Z,86.02
2023-05-22T07:53:38.472Z,86.22
2023-05-22T07:54:38.519Z,85.52
2023-05-22T07:55:38.509Z,85.42
2023-05-22T07:56:38.431Z,85.52
2023-05-22T07:57:38.425Z,85.52
2023-05-22T07:58:38.422Z,85.62
2023-05-22T07:59:38.406Z,85.52
2023-05-22T08:00:38.376Z,85.72
2023-05-22T08:01:38.354Z,85.92
2023-05-22T08:02:38.433Z,86.38
2023-05-22T08:03:38.488Z,86.38
2023-05-22T08:04:38.486Z,86.38
2023-05-22T08:05:38.338Z,86.38
2023-05-22T08:06:38.491Z,87.08
2023-05-22T08:07:38.288Z,87.29
2023-05-22T08:08:38.277Z,86.99
2023-05-22T08:09:38.253Z,86.99
2023-05-22T08:11:39.733Z,87.75
2023-05-22T08:12:38.220Z,87.35
2023-05-22T08:13:38.217Z,87.24
2023-05-22T08:14:38.181Z,87.55
2023-05-22T08:15:38.166Z,87.55
2023-05-22T08:16:38.175Z,86.90
2023-05-22T08:17:38.238Z,86.00
2023-05-22T08:18:38.146Z,85.39
2023-05-22T08:19:38.200Z,83.89
2023-05-22T08:20:38.370Z,81.18
2023-05-22T08:21:38.085Z,81.18
2023-05-22T08:22:38.103Z,81.48
2023-05-22T08:23:38.070Z,81.78
2023-05-22T08:24:38.062Z,82.95
2023-05-22T08:25:38.044Z,83.55
2023-05-22T08:26:38.029Z,84.45
2023-05-22T08:27:38.067Z,83.75
2023-05-22T08:28:38.001Z,83.35
2023-05-22T08:29:38.003Z,82.60
2023-05-22T08:30:38.167Z,82.00
2023-05-22T08:31:37.970Z,81.20
2023-05-22T08:32:38.057Z,81.20
2023-05-22T08:33:37.928Z,80.90
2023-05-22T08:34:37.917Z,80.70
2023-05-22T08:35:37.895Z,78.55
2023-05-22T08:36:37.883Z,78.35
2023-05-22T08:37:37.886Z,79.16
2023-05-22T08:38:37.863Z,79.75
2023-05-22T08:39:37.844Z,79.96
2023-05-22T08:40:38.099Z,80.76
2023-05-22T08:41:37.832Z,80.26
2023-05-22T08:42:37.818Z,79.66
2023-05-22T08:43:37.825Z,79.62
2023-05-22T08:44:37.817Z,79.52
2023-05-22T08:45:37.764Z,79.22
2023-05-22T08:46:37.848Z,78.92
2023-05-22T08:47:37.789Z,79.42
2023-05-22T08:48:37.742Z,79.92
2023-05-22T08:49:37.749Z,78.42
2023-05-22T08:50:37.923Z,76.61
2023-05-22T08:51:37.712Z,75.81
2023-05-22T08:52:37.671Z,75.91
2023-05-22T08:53:37.656Z,75.91
2023-05-22T08:54:37.681Z,77.11
2023-05-22T08:55:37.646Z,77.21
2023-05-22T08:56:45.582Z,77.37
2023-05-22T08:57:38.601Z,77.58
2023-05-22T08:58:37.698Z,77.67
2023-05-22T08:59:37.566Z,78.28
2023-05-22T09:00:37.789Z,78.58
2023-05-22T09:01:37.761Z,79.48
2023-05-22T09:02:37.609Z,80.68
2023-05-22T09:03:37.550Z,79.48
2023-05-22T09:04:37.528Z,79.78
2023-05-22T09:05:37.521Z,79.28
2023-05-22T09:06:37.494Z,79.28
2023-05-22T09:07:37.460Z,79.38
2023-05-22T09:08:37.460Z,78.98
2023-05-22T09:09:37.456Z,79.18
2023-05-22T09:10:37.713Z,79.18
2023-05-22T09:11:37.413Z,79.08
2023-05-22T09:12:37.407Z,78.88
2023-05-22T09:13:37.419Z,79.18
2023-05-22T09:14:37.379Z,79.28
2023-05-22T09:15:37.419Z,78.98
2023-05-22T09:16:37.406Z,79.88
2023-05-22T09:17:37.368Z,79.88
2023-05-22T09:18:37.332Z,80.18
2023-05-22T09:19:37.503Z,79.48
2023-05-22T09:20:37.493Z,79.18
2023-05-22T09:21:37.275Z,79.28
2023-05-22T09:22:37.271Z,79.58
2023-05-22T09:23:37.265Z,80.28
2023-05-22T09:24:37.267Z,81.09
2023-05-22T09:25:37.225Z,79.82
2023-05-22T09:26:37.230Z,79.52
2023-05-22T09:27:37.216Z,79.52
2023-05-22T09:28:37.201Z,79.22
2023-05-22T09:29:37.203Z,79.42
2023-05-22T09:30:37.267Z,80.32
2023-05-22T09:31:37.192Z,80.42
2023-05-22T09:32:37.173Z,80.42
2023-05-22T09:33:37.160Z,80.26
2023-05-22T09:34:37.119Z,80.36
2023-05-22T09:35:37.103Z,80.26
2023-05-22T09:36:37.091Z,80.26
2023-05-22T09:37:37.070Z,80.36
2023-05-22T09:38:37.081Z,79.86
2023-05-22T09:39:37.053Z,79.96
2023-05-22T09:40:37.139Z,80.40
2023-05-22T09:41:37.026Z,81.30
2023-05-22T09:42:37.019Z,81.40
2023-05-22T09:43:37.020Z,81.60
2023-05-22T09:44:36.981Z,81.00
2023-05-22T09:45:36.966Z,81.30
2023-05-22T09:46:37.033Z,81.00
2023-05-22T09:47:36.990Z,81.10
2023-05-22T09:48:36.940Z,81.30
2023-05-22T09:49:36.902Z,81.40
2023-05-22T09:50:37.044Z,81.40
2023-05-22T09:51:36.906Z,81.30
2023-05-22T09:52:36.895Z,81.90
2023-05-22T09:53:36.910Z,82.45
2023-05-22T09:54:36.854Z,82.45
2023-05-22T09:55:36.889Z,82.70
2023-05-22T09:56:39.945Z,82.84
2023-05-22T09:57:36.818Z,83.45
2023-05-22T09:58:37.091Z,83.31
2023-05-22T09:59:36.811Z,83.35
2023-05-22T10:00:36.759Z,82.90
2023-05-22T10:01:36.819Z,83.01
2023-05-22T10:02:37.320Z,83.21
2023-05-22T10:03:36.719Z,83.31
2023-05-22T10:04:36.813Z,82.90
2023-05-22T10:05:36.697Z,83.01
2023-05-22T10:06:36.703Z,83.31
2023-05-22T10:07:36.687Z,82.70
2023-05-22T10:08:36.690Z,82.81
2023-05-22T10:09:36.640Z,83.11
2023-05-22T10:10:36.647Z,82.87
2023-05-22T10:11:36.615Z,82.76
2023-05-22T10:12:36.605Z,82.37
2023-05-22T10:13:36.586Z,82.26
2023-05-22T10:14:36.599Z,82.76
2023-05-22T10:15:36.569Z,81.82
2023-05-22T10:16:36.597Z,80.92
2023-05-22T10:17:36.550Z,81.32
2023-05-22T10:18:36.538Z,80.88
2023-05-22T10:19:37.744Z,78.48
2023-05-22T10:20:36.537Z,78.48
2023-05-22T10:21:36.495Z,77.84
2023-05-22T10:22:36.476Z,78.24
2023-05-22T10:23:36.451Z,78.04
2023-05-22T10:24:36.443Z,77.30
2023-05-22T10:25:36.440Z,77.00
2023-05-22T10:26:36.417Z,77.76
2023-05-22T10:27:36.404Z,77.36
2023-05-22T10:28:36.408Z,75.96
2023-05-22T10:29:36.492Z,76.56
2023-05-22T10:30:36.381Z,76.33
2023-05-22T10:31:37.157Z,76.33
2023-05-22T10:32:36.380Z,77.53
2023-05-22T10:33:36.375Z,77.89
2023-05-22T10:34:36.301Z,75.19
2023-05-22T10:35:36.312Z,73.89
2023-05-22T10:36:36.296Z,74.19
2023-05-22T10:37:36.272Z,74.89
2023-05-22T10:38:36.288Z,75.05
2023-05-22T10:39:36.245Z,75.26
2023-05-22T10:40:36.457Z,75.26
2023-05-22T10:41:36.241Z,74.72
2023-05-22T10:42:36.203Z,73.62
2023-05-22T10:43:36.213Z,74.02
2023-05-22T10:44:36.190Z,73.72
2023-05-22T10:45:36.187Z,72.13
2023-05-22T10:46:36.192Z,71.69
2023-05-22T10:47:36.187Z,72.39
2023-05-22T10:48:36.127Z,72.29
2023-05-22T10:49:36.136Z,72.89
2023-05-22T10:50:36.128Z,72.99
2023-05-22T10:51:36.090Z,72.55
2023-05-22T10:52:36.064Z,72.55
2023-05-22T10:53:36.072Z,70.56
2023-05-22T10:54:36.067Z,70.56
2023-05-22T10:55:36.039Z,70.86
2023-05-22T10:56:36.055Z,71.86
2023-05-22T10:57:36.042Z,72.35
2023-05-22T10:58:35.997Z,71.56
2023-05-22T10:59:36.004Z,70.12
2023-05-22T11:00:35.967Z,71.32
2023-05-22T11:01:36.065Z,70.53
2023-05-22T11:02:35.998Z,69.62
2023-05-22T11:03:35.940Z,69.43
2023-05-22T11:04:35.988Z,70.83
2023-05-22T11:05:35.918Z,69.46
2023-05-22T11:06:35.935Z,68.66
2023-05-22T11:07:35.878Z,68.46
2023-05-22T11:08:35.858Z,68.66
2023-05-22T11:09:35.879Z,70.06
2023-05-22T11:10:35.830Z,70.26
2023-05-22T11:11:35.824Z,70.86
2023-05-22T11:12:35.808Z,71.86
2023-05-22T11:13:35.816Z,71.12
2023-05-22T11:14:35.797Z,69.92
2023-05-22T11:15:35.768Z,69.43
2023-05-22T11:16:35.802Z,68.43
2023-05-22T11:17:35.790Z,69.13
2023-05-22T11:18:35.758Z,68.30
2023-05-22T11:19:35.749Z,66.50
2023-05-22T11:20:35.712Z,65.97
2023-05-22T11:21:35.694Z,65.17
2023-05-22T11:22:35.689Z,65.37
2023-05-22T11:23:35.692Z,66.27
2023-05-22T11:24:35.853Z,68.56
2023-05-22T11:25:35.643Z,66.27
2023-05-22T11:26:35.626Z,66.37
2023-05-22T11:27:35.685Z,67.66
2023-05-22T11:28:35.620Z,65.97
2023-05-22T11:29:35.605Z,65.47
2023-05-22T11:30:35.586Z,65.84
2023-05-22T11:31:35.605Z,64.87
2023-05-22T11:32:35.587Z,65.17
2023-05-22T11:33:35.531Z,65.05
2023-05-22T11:34:35.775Z,64.28
2023-05-22T11:35:35.515Z,65.08
2023-05-22T11:36:35.509Z,65.27
2023-05-22T11:37:35.530Z,65.37
2023-05-22T11:38:35.467Z,65.47
2023-05-22T11:39:35.468Z,65.87
2023-05-22T11:40:35.452Z,65.24
2023-05-22T11:41:35.461Z,63.85
2023-05-22T11:42:35.432Z,65.94
2023-05-22T11:43:35.420Z,64.15
2023-05-22T11:44:35.394Z,63.25
2023-05-22T11:45:35.377Z,62.75
2023-05-22T11:46:35.390Z,63.65
2023-05-22T11:47:35.387Z,66.44
2023-05-22T11:48:35.336Z,65.31
2023-05-22T11:49:35.318Z,66.80
2023-05-22T11:51:36.335Z,65.51
2023-05-22T11:52:35.287Z,63.59
2023-05-22T11:53:35.278Z,63.39
2023-05-22T11:54:37.758Z,63.39
2023-05-22T11:55:35.255Z,64.88
2023-05-22T11:56:35.240Z,64.25
2023-05-22T11:57:35.216Z,63.36
2023-05-22T11:58:35.216Z,63.26
2023-05-22T11:59:35.185Z,62.86
2023-05-22T12:00:35.252Z,63.16
2023-05-22T12:01:35.183Z,65.84
2023-05-22T12:02:35.296Z,63.95
2023-05-22T12:03:35.361Z,63.53
2023-05-22T12:04:35.133Z,62.93
2023-05-22T12:05:35.137Z,63.23
2023-05-22T12:06:35.151Z,62.93
2023-05-22T12:07:35.098Z,63.23
2023-05-22T12:08:35.105Z,64.82
2023-05-22T12:09:35.065Z,65.52
2023-05-22T12:10:35.070Z,65.31
2023-05-22T12:11:35.051Z,64.09
2023-05-22T12:12:35.015Z,64.29
2023-05-22T12:13:35.010Z,64.19
2023-05-22T12:14:35.019Z,66.18
2023-05-22T12:15:34.990Z,65.98
2023-05-22T12:16:35.083Z,65.19
2023-05-22T12:17:34.981Z,65.09
2023-05-22T12:18:34.936Z,63.20
2023-05-22T12:19:35.001Z,64.59
2023-05-22T12:20:34.904Z,65.88
2023-05-22T12:21:34.911Z,67.57
2023-05-22T12:22:34.879Z,63.60
2023-05-22T12:23:34.861Z,64.00
2023-05-22T12:24:34.879Z,64.86
2023-05-22T12:25:34.900Z,63.96
2023-05-22T12:26:34.834Z,65.06
2023-05-22T12:27:36.618Z,64.46
2023-05-22T12:28:34.798Z,62.77
2023-05-22T12:29:34.833Z,63.46
2023-05-22T12:30:34.794Z,64.26
2023-05-22T12:31:34.833Z,64.46
2023-05-22T12:32:34.772Z,63.76
2023-05-22T12:33:34.770Z,65.62
2023-05-22T12:34:34.737Z,63.93
2023-05-22T12:35:34.708Z,63.83
2023-05-22T12:36:34.696Z,64.33
2023-05-22T12:37:34.685Z,64.53
2023-05-22T12:38:35.603Z,65.42
2023-05-22T12:39:34.688Z,66.41
2023-05-22T12:40:34.643Z,67.11
2023-05-22T12:41:34.639Z,64.03
2023-05-22T12:42:34.636Z,66.22
2023-05-22T12:43:34.630Z,63.93
2023-05-22T12:44:34.812Z,64.13
2023-05-22T12:45:34.587Z,64.13
2023-05-22T12:46:34.650Z,65.69
2023-05-22T12:47:35.304Z,64.40
2023-05-22T12:48:34.576Z,64.10
2023-05-22T12:49:34.534Z,64.30
2023-05-22T12:50:34.510Z,63.10
2023-05-22T12:51:34.514Z,63.13
2023-05-22T12:52:34.487Z,65.02
2023-05-22T12:53:34.502Z,65.92
2023-05-22T12:54:34.474Z,65.89